createdAt,value
2019-05-23T00:00:29.334Z,92.70
2019-05-23T00:03:18.794Z,92.90
2019-05-23T00:06:10.803Z,92.60
2019-05-23T00:09:00.875Z,92.60
2019-05-23T00:11:56.487Z,92.60
2019-05-23T00:14:51.727Z,92.80
2019-05-23T00:17:39.514Z,92.70
2019-05-23T00:20:28.583Z,92.80
2019-05-23T00:23:16.855Z,92.80
2019-05-23T00:26:06.904Z,92.90
2019-05-23T00:29:09.009Z,92.80
2019-05-23T00:31:47.323Z,93.00
2019-05-23T00:34:37.536Z,92.80
2019-05-23T00:37:28.690Z,92.80
2019-05-23T00:40:19.185Z,92.60
2019-05-23T00:43:07.431Z,92.80
2019-05-23T00:45:55.635Z,92.90
2019-05-23T00:48:44.158Z,93.00
2019-05-23T00:51:34.350Z,93.10
2019-05-23T00:54:23.066Z,93.10
2019-05-23T00:57:12.878Z,93.50
2019-05-23T01:00:02.456Z,94.00
2019-05-23T01:02:50.885Z,94.00
2019-05-23T01:05:59.453Z,94.10
2019-05-23T01:08:48.861Z,93.90
2019-05-23T01:11:38.089Z,93.70
2019-05-23T01:14:27.380Z,93.30
2019-05-23T01:17:15.871Z,93.70
2019-05-23T01:20:11.736Z,93.60
2019-05-23T01:23:01.551Z,93.80
2019-05-23T01:25:49.800Z,94.60
2019-05-23T01:28:39.611Z,94.80
2019-05-23T01:31:29.408Z,94.90
2019-05-23T01:34:17.925Z,94.80
2019-05-23T01:37:06.171Z,94.70
2019-05-23T01:39:54.124Z,94.80
2019-05-23T01:42:44.136Z,94.70
2019-05-23T01:45:34.498Z,94.50
2019-05-23T01:48:23.384Z,94.30
2019-05-23T01:51:11.559Z,94.10
2019-05-23T01:54:00.010Z,94.10
2019-05-23T01:56:48.356Z,94.30
2019-05-23T01:59:36.663Z,94.30
2019-05-23T02:02:27.278Z,94.20
2019-05-23T02:05:15.382Z,94.30
2019-05-23T02:08:04.821Z,94.30
2019-05-23T02:10:54.253Z,94.40
2019-05-23T02:13:44.015Z,94.60
2019-05-23T02:16:33.636Z,94.30
2019-05-23T02:19:23.626Z,94.80
2019-05-23T02:22:13.361Z,94.50
2019-05-23T02:25:02.085Z,94.90
2019-05-23T02:27:51.059Z,95.20
2019-05-23T02:30:40.354Z,95.80
2019-05-23T02:33:29.522Z,95.90
2019-05-23T02:36:17.865Z,95.90
2019-05-23T02:39:21.800Z,96.10
2019-05-23T02:42:14.363Z,96.20
2019-05-23T02:45:04.342Z,95.90
2019-05-23T02:47:55.067Z,95.80
2019-05-23T02:50:46.268Z,95.80
2019-05-23T02:53:35.398Z,95.90
2019-05-23T02:56:24.748Z,95.80
2019-05-23T02:59:36.664Z,95.80
2019-05-23T03:02:28.356Z,96.10
2019-05-23T03:05:17.807Z,95.60
2019-05-23T03:08:08.867Z,96.00
2019-05-23T03:11:13.733Z,95.90
2019-05-23T03:14:02.306Z,95.50
2019-05-23T03:16:53.234Z,95.90
2019-05-23T03:19:53.881Z,96.30
2019-05-23T03:22:46.532Z,96.20
2019-05-23T03:25:39.082Z,96.40
2019-05-23T03:28:30.828Z,96.40
2019-05-23T03:31:31.580Z,96.10
2019-05-23T03:34:19.690Z,96.30
2019-05-23T03:37:10.267Z,96.10
2019-05-23T03:39:59.631Z,95.90
2019-05-23T03:42:47.709Z,96.30
2019-05-23T03:45:40.474Z,96.10
2019-05-23T03:48:29.542Z,96.20
2019-05-23T03:51:19.729Z,96.50
2019-05-23T03:54:28.102Z,96.50
2019-05-23T03:57:18.995Z,96.70
2019-05-23T04:00:10.525Z,97.10
2019-05-23T04:02:59.481Z,97.40
2019-05-23T04:05:47.963Z,97.30
2019-05-23T04:08:36.958Z,97.20
2019-05-23T04:11:25.138Z,97.30
2019-05-23T04:14:14.365Z,97.40
2019-05-23T04:17:02.431Z,97.90
2019-05-23T04:19:51.230Z,98.30
2019-05-23T04:22:39.536Z,98.60
2019-05-23T04:25:29.500Z,98.50
2019-05-23T04:28:18.252Z,98.50
2019-05-23T04:31:07.104Z,97.50
2019-05-23T04:33:55.421Z,96.60
2019-05-23T04:36:44.274Z,95.90
2019-05-23T04:39:33.146Z,94.30
2019-05-23T04:42:21.631Z,93.30
2019-05-23T04:45:09.844Z,93.30
2019-05-23T04:47:58.435Z,93.10
2019-05-23T04:50:47.321Z,92.50
2019-05-23T04:53:35.762Z,91.90
2019-05-23T04:56:25.239Z,91.10
2019-05-23T04:59:13.256Z,90.60
2019-05-23T05:02:02.020Z,90.20
2019-05-23T05:04:50.621Z,91.20
2019-05-23T05:07:40.095Z,92.80
2019-05-23T05:10:28.990Z,94.20
2019-05-23T05:13:17.637Z,95.60
2019-05-23T05:16:06.613Z,96.30
2019-05-23T05:18:55.883Z,96.90
2019-05-23T05:21:43.672Z,97.20
2019-05-23T05:24:31.782Z,97.80
2019-05-23T05:27:21.032Z,97.90
2019-05-23T05:30:09.853Z,97.90
2019-05-23T05:32:58.088Z,98.00
2019-05-23T05:35:46.534Z,98.00
2019-05-23T05:38:35.299Z,98.20
2019-05-23T05:41:22.772Z,98.80
2019-05-23T05:44:12.098Z,98.60
2019-05-23T05:47:01.221Z,98.60
2019-05-23T05:49:49.628Z,98.50
2019-05-23T05:52:39.119Z,98.50
2019-05-23T05:55:27.615Z,98.50
2019-05-23T05:58:15.624Z,98.40
2019-05-23T06:01:05.187Z,98.60
2019-05-23T06:03:53.502Z,98.80
2019-05-23T06:06:50.353Z,98.80
2019-05-23T06:09:39.299Z,99.20
2019-05-23T06:12:28.628Z,98.50
2019-05-23T06:15:17.821Z,98.60
2019-05-23T06:18:05.788Z,98.30
2019-05-23T06:20:54.260Z,99.30
2019-05-23T06:23:42.826Z,99.30
2019-05-23T06:26:31.357Z,99.20
2019-05-23T06:29:19.662Z,98.80
2019-05-23T06:32:08.982Z,98.80
2019-05-23T06:34:57.307Z,98.30
2019-05-23T06:37:46.873Z,97.80
2019-05-23T06:40:35.970Z,97.70
2019-05-23T06:43:24.887Z,96.80
2019-05-23T06:46:14.199Z,95.80
2019-05-23T06:49:02.209Z,94.70
2019-05-23T06:51:50.350Z,95.60
2019-05-23T06:54:39.000Z,95.70
2019-05-23T06:57:27.240Z,95.30
2019-05-23T07:00:18.175Z,93.10
2019-05-23T07:03:06.224Z,93.10
2019-05-23T07:05:54.248Z,93.40
2019-05-23T07:08:42.369Z,92.70
2019-05-23T07:11:30.821Z,93.50
2019-05-23T07:14:19.185Z,93.10
2019-05-23T07:17:07.234Z,92.00
2019-05-23T07:19:55.747Z,91.60
2019-05-23T07:22:44.308Z,92.30
2019-05-23T07:25:51.664Z,92.00
2019-05-23T07:28:40.292Z,91.30
2019-05-23T07:31:28.920Z,91.00
2019-05-23T07:34:17.133Z,88.40
2019-05-23T07:37:06.020Z,90.50
2019-05-23T07:39:54.303Z,90.30
2019-05-23T07:42:42.763Z,87.60
2019-05-23T07:45:47.814Z,84.00
2019-05-23T07:48:35.991Z,83.30
2019-05-23T07:51:24.563Z,85.80
2019-05-23T07:54:14.928Z,83.80
2019-05-23T07:57:03.878Z,84.60
2019-05-23T07:59:51.813Z,82.90
2019-05-23T08:02:41.151Z,82.40
2019-05-23T08:05:29.259Z,83.30
2019-05-23T08:08:17.725Z,82.50
2019-05-23T08:11:06.289Z,81.30
2019-05-23T08:13:55.191Z,80.20
2019-05-23T08:16:43.037Z,78.00
2019-05-23T08:19:48.190Z,78.40
2019-05-23T08:22:22.441Z,80.40
2019-05-23T08:25:11.712Z,78.50
2019-05-23T08:27:59.586Z,74.40
2019-05-23T08:30:48.121Z,75.60
2019-05-23T08:33:37.985Z,74.40
2019-05-23T08:36:27.129Z,75.10
2019-05-23T08:39:16.446Z,78.10
2019-05-23T08:42:05.176Z,75.30
2019-05-23T08:44:53.894Z,73.50
2019-05-23T08:47:42.176Z,72.40
2019-05-23T08:50:31.452Z,74.50
2019-05-23T08:53:19.499Z,74.30
2019-05-23T08:56:18.282Z,75.50
2019-05-23T08:58:58.651Z,73.70
2019-05-23T09:01:47.512Z,72.30
2019-05-23T09:04:36.143Z,75.30
2019-05-23T09:07:24.227Z,73.80
2019-05-23T09:10:12.613Z,72.10
2019-05-23T09:13:01.746Z,76.00
2019-05-23T09:15:52.819Z,69.90
2019-05-23T09:18:40.312Z,72.40
2019-05-23T09:21:28.782Z,66.80
2019-05-23T09:24:18.855Z,69.60
2019-05-23T09:27:08.352Z,68.70
2019-05-23T09:29:56.615Z,68.10
2019-05-23T09:32:45.574Z,69.70
2019-05-23T09:35:34.575Z,67.10
2019-05-23T09:38:22.535Z,67.40
2019-05-23T09:41:11.150Z,65.40
2019-05-23T09:43:59.562Z,65.20
2019-05-23T09:46:47.926Z,65.20
2019-05-23T09:49:36.348Z,66.90
2019-05-23T09:52:25.077Z,66.70
2019-05-23T09:55:13.273Z,63.60
2019-05-23T09:58:00.986Z,65.20
2019-05-23T10:00:49.709Z,66.10
2019-05-23T10:03:39.145Z,65.50
2019-05-23T10:06:27.335Z,68.30
2019-05-23T10:09:15.914Z,63.80
2019-05-23T10:12:04.606Z,66.20
2019-05-23T10:14:53.442Z,68.60
2019-05-23T10:17:41.737Z,64.00
2019-05-23T10:20:31.591Z,64.00
2019-05-23T10:23:19.860Z,65.30
2019-05-23T10:26:08.345Z,65.10
2019-05-23T10:28:56.403Z,64.10
2019-05-23T10:31:44.263Z,62.10
2019-05-23T10:34:33.099Z,62.60
2019-05-23T10:37:21.039Z,64.10
2019-05-23T10:40:09.918Z,64.70
2019-05-23T10:42:58.454Z,63.80
2019-05-23T10:45:47.783Z,64.80
2019-05-23T10:48:55.710Z,66.50
2019-05-23T10:51:43.487Z,62.60
2019-05-23T10:54:31.777Z,63.60
2019-05-23T10:57:20.859Z,63.50
2019-05-23T11:00:10.866Z,63.60
2019-05-23T11:02:59.342Z,61.80
2019-05-23T11:05:47.437Z,64.00
2019-05-23T11:08:36.700Z,64.30
2019-05-23T11:11:25.971Z,61.40
2019-05-23T11:14:14.237Z,65.70
2019-05-23T11:17:02.298Z,65.50
2019-05-23T11:19:50.494Z,64.10
2019-05-23T11:22:39.144Z,65.30
2019-05-23T11:25:28.755Z,65.40
2019-05-23T11:28:16.790Z,63.00
2019-05-23T11:31:06.007Z,65.20
2019-05-23T11:33:54.176Z,62.80
2019-05-23T11:36:42.260Z,64.10
2019-05-23T11:39:31.422Z,64.60
2019-05-23T11:42:19.649Z,65.90
2019-05-23T11:45:08.756Z,65.50
2019-05-23T11:47:56.984Z,64.90
2019-05-23T11:50:45.765Z,64.10
2019-05-23T11:53:34.517Z,63.20
2019-05-23T11:56:22.096Z,62.60
2019-05-23T11:59:10.515Z,63.00
2019-05-23T12:02:03.623Z,59.80
2019-05-23T12:04:52.132Z,59.60
2019-05-23T12:07:41.639Z,59.90
2019-05-23T12:10:29.789Z,59.90
2019-05-23T12:13:18.362Z,59.10
2019-05-23T12:16:07.563Z,60.10
2019-05-23T12:18:55.800Z,60.60
2019-05-23T12:21:43.781Z,60.10
2019-05-23T12:24:35.271Z,55.50
2019-05-23T12:27:20.710Z,58.70
2019-05-23T12:30:12.565Z,57.50
2019-05-23T12:33:01.211Z,57.40
2019-05-23T12:35:50.114Z,56.90
2019-05-23T12:38:38.037Z,56.30
2019-05-23T12:41:26.208Z,56.30
2019-05-23T12:44:17.470Z,54.10
2019-05-23T12:47:06.686Z,58.00
2019-05-23T12:50:00.769Z,50.50
2019-05-23T12:52:49.142Z,53.60
2019-05-23T12:55:37.356Z,55.60
2019-05-23T12:58:25.893Z,56.40
2019-05-23T13:01:16.105Z,58.60
2019-05-23T13:04:04.864Z,57.30
2019-05-23T13:06:54.503Z,59.20
2019-05-23T13:09:42.885Z,58.20
2019-05-23T13:12:31.753Z,56.90
2019-05-23T13:15:19.896Z,58.70
2019-05-23T13:18:07.665Z,57.30
2019-05-23T13:20:59.440Z,58.30
2019-05-23T13:23:46.397Z,57.00
2019-05-23T13:26:35.485Z,55.40
2019-05-23T13:29:24.952Z,57.60
2019-05-23T13:32:13.540Z,55.40
2019-05-23T13:35:02.283Z,56.80
2019-05-23T13:37:54.140Z,55.40
2019-05-23T13:40:40.227Z,57.60
2019-05-23T13:43:29.151Z,59.30
2019-05-23T13:46:17.644Z,57.10
2019-05-23T13:49:06.351Z,57.00
2019-05-23T13:51:54.739Z,55.60
2019-05-23T13:54:43.050Z,57.90
2019-05-23T13:57:31.245Z,56.40
2019-05-23T14:00:20.772Z,56.00
2019-05-23T14:03:09.700Z,57.00
2019-05-23T14:05:58.258Z,57.10
2019-05-23T14:08:46.353Z,56.80
2019-05-23T14:11:36.971Z,57.40
2019-05-23T14:14:25.612Z,56.70
2019-05-23T14:17:24.436Z,56.80
2019-05-23T14:20:14.434Z,57.40
2019-05-23T14:23:21.287Z,55.30
2019-05-23T14:26:11.274Z,55.40
2019-05-23T14:28:59.612Z,57.30
2019-05-23T14:31:52.406Z,57.20
2019-05-23T14:34:40.287Z,60.70
2019-05-23T14:37:32.876Z,55.50
2019-05-23T14:40:21.690Z,56.40
2019-05-23T14:43:26.313Z,55.60
2019-05-23T14:46:16.144Z,55.50
2019-05-23T14:49:09.266Z,55.90
2019-05-23T14:52:10.773Z,55.70
2019-05-23T14:55:00.968Z,55.20
2019-05-23T14:57:49.024Z,56.00
2019-05-23T15:00:37.534Z,55.60
2019-05-23T15:03:26.183Z,56.20
2019-05-23T15:06:14.072Z,56.60
2019-05-23T15:09:02.313Z,57.10
2019-05-23T15:11:51.470Z,57.30
2019-05-23T15:14:40.067Z,57.20
2019-05-23T15:17:28.519Z,57.30
2019-05-23T15:20:17.230Z,57.00
2019-05-23T15:23:05.437Z,57.60
2019-05-23T15:25:53.256Z,58.00
2019-05-23T15:28:41.608Z,57.80
2019-05-23T15:31:31.300Z,58.80
2019-05-23T15:34:19.004Z,58.90
2019-05-23T15:37:07.067Z,56.90
2019-05-23T15:39:55.665Z,58.60
2019-05-23T15:42:43.693Z,56.90
2019-05-23T15:45:33.175Z,56.20
2019-05-23T15:48:20.986Z,58.30
2019-05-23T15:51:10.602Z,54.60
2019-05-23T15:54:00.754Z,55.20
2019-05-23T15:56:52.808Z,53.00
2019-05-23T15:59:44.981Z,54.80
2019-05-23T16:02:35.066Z,52.80
2019-05-23T16:05:24.872Z,53.00
2019-05-23T16:08:12.777Z,51.30
2019-05-23T16:11:01.425Z,52.20
2019-05-23T16:13:49.498Z,51.90
2019-05-23T16:16:37.621Z,52.90
2019-05-23T16:19:25.701Z,52.80
2019-05-23T16:22:13.870Z,53.80
2019-05-23T16:25:02.330Z,55.30
2019-05-23T16:27:51.338Z,54.90
2019-05-23T16:30:40.466Z,55.20
2019-05-23T16:33:28.563Z,55.90
2019-05-23T16:36:17.314Z,54.80
2019-05-23T16:39:07.969Z,57.30
2019-05-23T16:41:56.041Z,56.30
2019-05-23T16:44:44.812Z,56.80
2019-05-23T16:47:33.298Z,55.20
2019-05-23T16:50:22.131Z,55.30
2019-05-23T16:53:10.264Z,56.90
2019-05-23T16:56:09.916Z,57.90
2019-05-23T16:59:03.218Z,57.00
2019-05-23T17:02:05.298Z,55.40
2019-05-23T17:04:47.761Z,57.90
2019-05-23T17:07:37.294Z,58.50
2019-05-23T17:10:32.489Z,59.50
2019-05-23T17:13:28.258Z,57.60
2019-05-23T17:16:31.858Z,56.50
2019-05-23T17:19:21.602Z,57.10
2019-05-23T17:22:27.104Z,57.20
2019-05-23T17:25:17.944Z,58.20
2019-05-23T17:28:07.349Z,59.10
2019-05-23T17:30:56.900Z,59.40
2019-05-23T17:33:45.335Z,60.30
2019-05-23T17:36:33.437Z,62.50
2019-05-23T17:39:22.062Z,62.90
2019-05-23T17:42:10.190Z,62.20
2019-05-23T17:44:58.369Z,61.50
2019-05-23T17:47:46.870Z,61.40
2019-05-23T17:50:36.679Z,59.60
2019-05-23T17:53:25.501Z,58.60
2019-05-23T17:56:13.556Z,56.90
2019-05-23T17:59:01.288Z,57.40
2019-05-23T18:01:49.698Z,57.70
2019-05-23T18:04:38.718Z,59.00
2019-05-23T18:07:27.263Z,58.90
2019-05-23T18:10:15.614Z,59.80
2019-05-23T18:13:04.993Z,58.80
2019-05-23T18:15:52.804Z,60.20
2019-05-23T18:18:41.491Z,61.30
2019-05-23T18:21:30.259Z,60.80
2019-05-23T18:24:19.269Z,60.70
2019-05-23T18:27:09.038Z,61.30
2019-05-23T18:30:01.881Z,61.80
2019-05-23T18:32:52.526Z,62.10
2019-05-23T18:35:41.768Z,63.70
2019-05-23T18:38:33.989Z,62.40
2019-05-23T18:41:22.866Z,63.30
2019-05-23T18:44:11.293Z,64.30
2019-05-23T18:47:02.158Z,64.00
2019-05-23T18:49:52.157Z,64.90
2019-05-23T18:52:40.467Z,64.60
2019-05-23T18:55:29.408Z,67.50
2019-05-23T18:58:19.819Z,66.90
2019-05-23T19:01:09.470Z,67.90
2019-05-23T19:03:57.151Z,68.80
2019-05-23T19:06:46.106Z,70.50
2019-05-23T19:09:33.875Z,69.70
2019-05-23T19:12:22.860Z,74.30
2019-05-23T19:15:11.427Z,78.70
2019-05-23T19:18:00.053Z,80.00
2019-05-23T19:20:48.171Z,80.30
2019-05-23T19:23:37.023Z,81.20
2019-05-23T19:26:25.258Z,81.60
2019-05-23T19:29:13.531Z,82.40
2019-05-23T19:32:01.699Z,83.50
2019-05-23T19:34:50.306Z,83.40
2019-05-23T19:37:39.753Z,84.10
2019-05-23T19:40:29.290Z,83.50
2019-05-23T19:43:18.196Z,83.10
2019-05-23T19:46:06.379Z,85.30
2019-05-23T19:48:55.209Z,84.90
2019-05-23T19:51:44.439Z,84.10
2019-05-23T19:54:33.270Z,85.20
2019-05-23T19:57:22.037Z,85.30
2019-05-23T20:00:18.615Z,85.70
2019-05-23T20:03:08.137Z,86.00
2019-05-23T20:05:58.067Z,86.20
2019-05-23T20:08:48.016Z,86.10
2019-05-23T20:11:36.087Z,85.50
2019-05-23T20:14:23.619Z,84.90
2019-05-23T20:17:11.865Z,85.70
2019-05-23T20:20:00.438Z,87.30
2019-05-23T20:22:48.640Z,87.70
2019-05-23T20:25:36.596Z,88.20
2019-05-23T20:28:27.324Z,88.30
2019-05-23T20:31:15.685Z,89.60
2019-05-23T20:34:07.161Z,90.00
2019-05-23T20:36:54.443Z,89.50
2019-05-23T20:39:42.648Z,89.80
2019-05-23T20:42:30.952Z,89.50
2019-05-23T20:45:19.319Z,89.00
2019-05-23T20:48:08.645Z,88.70
2019-05-23T20:50:56.626Z,89.80
2019-05-23T20:53:44.741Z,90.00
2019-05-23T20:56:33.097Z,90.30
2019-05-23T20:59:21.416Z,90.50
2019-05-23T21:02:09.219Z,91.00
2019-05-23T21:04:57.327Z,91.10
2019-05-23T21:07:45.297Z,91.00
2019-05-23T21:10:42.707Z,91.10
2019-05-23T21:13:30.417Z,91.70
2019-05-23T21:16:18.423Z,91.60
2019-05-23T21:19:06.760Z,91.70
2019-05-23T21:21:55.893Z,91.80
2019-05-23T21:24:44.222Z,91.70
2019-05-23T21:27:32.480Z,92.00
2019-05-23T21:30:20.510Z,91.60
2019-05-23T21:33:08.708Z,91.60
2019-05-23T21:35:56.801Z,91.50
2019-05-23T21:38:45.558Z,91.60
2019-05-23T21:41:33.873Z,91.40
2019-05-23T21:44:22.327Z,91.60
2019-05-23T21:47:11.132Z,91.70
2019-05-23T21:49:59.370Z,91.50
2019-05-23T21:52:48.335Z,91.40
2019-05-23T21:55:40.775Z,91.70
2019-05-23T21:58:28.627Z,91.90
2019-05-23T22:01:20.508Z,92.00
2019-05-23T22:04:10.068Z,92.50
2019-05-23T22:06:59.689Z,92.60
2019-05-23T22:09:47.696Z,92.70
2019-05-23T22:12:35.659Z,92.70
2019-05-23T22:15:37.475Z,92.40
2019-05-23T22:18:26.551Z,92.50
2019-05-23T22:21:15.495Z,92.90
2019-05-23T22:24:05.028Z,93.00
2019-05-23T22:26:52.783Z,93.20
2019-05-23T22:29:41.267Z,93.00
2019-05-23T22:32:30.092Z,92.80
2019-05-23T22:35:19.745Z,92.90
2019-05-23T22:38:08.135Z,92.90
2019-05-23T22:40:56.271Z,93.40
2019-05-23T22:43:44.092Z,93.60
2019-05-23T22:46:32.655Z,93.40
2019-05-23T22:49:20.774Z,93.20
2019-05-23T22:52:09.447Z,93.60
2019-05-23T22:54:57.126Z,94.00
2019-05-23T22:57:45.979Z,93.60
2019-05-23T23:00:35.404Z,93.70
2019-05-23T23:03:22.985Z,93.70
2019-05-23T23:06:11.298Z,93.80
2019-05-23T23:08:59.824Z,93.90
2019-05-23T23:11:47.851Z,93.80
2019-05-23T23:14:35.856Z,93.90
2019-05-23T23:17:24.034Z,94.10
2019-05-23T23:20:12.379Z,94.20
2019-05-23T23:23:00.671Z,94.30
2019-05-23T23:25:49.268Z,94.60
2019-05-23T23:28:37.842Z,94.70
2019-05-23T23:31:25.944Z,94.70
2019-05-23T23:34:13.747Z,94.60
2019-05-23T23:37:02.193Z,94.80
2019-05-23T23:39:50.055Z,94.70
2019-05-23T23:42:38.514Z,94.80
2019-05-23T23:45:45.100Z,94.90
2019-05-23T23:48:52.266Z,94.80
2019-05-23T23:51:58.404Z,94.60
2019-05-23T23:55:04.838Z,94.80
2019-05-23T23:57:58.760Z,94.60
